Time;durP1;ratioP1;P1;durP2;ratioP2;P2;SDS_P1;SDS_P2;PMS_P1;PMS_P2;Temp;Humidity;BMP_temperature;BMP_pressure;BME280_temperature;BME280_humidity;BME280_pressure;Samples;Min_cycle;Max_cycle;Signal;HPM_P1;HPM_P2
2022/12/08 00:01:28;;;;;;;14.63;13.80;;;5.50;33.90;;;;;;5029537;28;20983;-54
2022/12/08 00:03:55;;;;;;;14.43;13.53;;;5.50;32.70;;;;;;5026569;28;20422;-55
2022/12/08 00:09:28;;;;;;;14.70;13.73;;;5.70;31.90;;;;;;5028221;28;20430;-55
2022/12/08 00:12:05;;;;;;;14.53;13.63;;;5.80;32.00;;;;;;5025655;28;20458;-53
2022/12/08 00:14:36;;;;;;;16.47;15.37;;;6.00;31.50;;;;;;5027336;28;20415;-52
2022/12/08 00:17:09;;;;;;;14.57;13.77;;;5.70;31.80;;;;;;5026370;28;20503;-51
2022/12/08 00:19:39;;;;;;;15.60;14.70;;;5.60;32.30;;;;;;5026381;28;20798;-55
2022/12/08 00:22:14;;;;;;;15.00;14.10;;;5.70;31.80;;;;;;5028022;28;20538;-55
2022/12/08 00:24:48;;;;;;;15.43;14.60;;;5.60;31.40;;;;;;5027240;28;20962;-51
2022/12/08 00:27:17;;;;;;;15.23;14.33;;;5.60;32.40;;;;;;5027174;28;20455;-52
2022/12/08 00:29:44;;;;;;;14.87;13.97;;;5.70;31.60;;;;;;5028001;28;20419;-53
2022/12/08 00:32:13;;;;;;;15.27;14.37;;;5.70;32.20;;;;;;5027128;28;20718;-53
2022/12/08 00:34:39;;;;;;;14.97;14.07;;;5.80;31.60;;;;;;5027575;28;20778;-51
2022/12/08 00:37:10;;;;;;;14.03;13.23;;;5.70;31.10;;;;;;5027900;28;20407;-56
2022/12/08 00:39:36;;;;;;;14.70;13.83;;;5.50;32.30;;;;;;5030593;28;20844;-54
2022/12/08 00:42:10;;;;;;;15.33;14.33;;;5.40;32.90;;;;;;5030921;28;20510;-57
2022/12/08 00:44:43;;;;;;;15.03;14.23;;;5.50;32.20;;;;;;5029648;28;20911;-56
2022/12/08 00:47:18;;;;;;;15.40;14.50;;;5.30;32.60;;;;;;5009788;28;20420;-52
2022/12/08 00:49:52;;;;;;;15.20;14.07;;;5.30;33.40;;;;;;5026077;28;20506;-50
2022/12/08 00:52:23;;;;;;;14.70;13.90;;;5.30;33.00;;;;;;5009357;28;20541;-53
2022/12/08 00:54:49;;;;;;;14.60;13.80;;;5.50;32.30;;;;;;5025825;28;20420;-55
2022/12/08 00:57:20;;;;;;;15.27;14.30;;;5.70;32.50;;;;;;5026089;28;20411;-51
2022/12/08 00:59:56;;;;;;;14.43;13.53;;;6.10;31.40;;;;;;5010388;28;20181;-54
2022/12/08 01:02:24;;;;;;;13.50;12.70;;;6.40;30.20;;;;;;5025891;28;20455;-50
2022/12/08 01:04:55;;;;;;;13.83;12.93;;;6.60;29.70;;;;;;5010399;28;20432;-53
2022/12/08 01:07:32;;;;;;;13.63;12.83;;;6.80;28.90;;;;;;5025568;28;20466;-53
2022/12/08 01:09:58;;;;;;;12.63;11.93;;;6.90;28.30;;;;;;5027432;28;20423;-51
2022/12/08 01:12:34;;;;;;;14.10;13.20;;;7.00;27.90;;;;;;5027359;28;20797;-50
2022/12/08 01:15:02;;;;;;;14.20;13.20;;;6.90;27.50;;;;;;5011917;28;20518;-52
2022/12/08 01:17:31;;;;;;;13.00;12.20;;;6.80;28.60;;;;;;5025835;28;20413;-51
2022/12/08 01:20:02;;;;;;;13.93;13.03;;;6.80;28.60;;;;;;5030234;28;20423;-49
2022/12/08 01:22:36;;;;;;;12.80;12.10;;;6.80;27.60;;;;;;5031405;28;20451;-50
2022/12/08 01:25:05;;;;;;;13.50;12.60;;;6.50;28.30;;;;;;5030378;28;20415;-52
2022/12/08 01:27:31;;;;;;;13.67;12.97;;;6.20;28.90;;;;;;5029870;28;20431;-50
2022/12/08 01:29:59;;;;;;;12.97;12.27;;;5.70;29.90;;;;;;5031841;28;20400;-48
2022/12/08 01:32:34;;;;;;;13.80;13.00;;;5.40;30.90;;;;;;5030022;28;20278;-49
2022/12/08 01:35:03;;;;;;;14.10;13.30;;;5.10;31.80;;;;;;5029998;28;20430;-49
2022/12/08 01:37:29;;;;;;;13.90;13.10;;;5.00;32.90;;;;;;5028178;28;20411;-53
2022/12/08 01:39:57;;;;;;;13.77;13.03;;;4.90;33.10;;;;;;5028876;28;20486;-53
2022/12/08 01:42:23;;;;;;;13.50;12.70;;;4.80;33.50;;;;;;5030686;28;20832;-55
2022/12/08 01:44:57;;;;;;;14.83;13.93;;;4.80;33.70;;;;;;5029103;28;20917;-54
2022/12/08 01:47:29;;;;;;;14.73;13.93;;;4.70;34.10;;;;;;5029211;28;20425;-50
2022/12/08 01:49:59;;;;;;;14.07;13.27;;;4.60;34.40;;;;;;5029771;28;20443;-49
2022/12/08 01:52:41;;;;;;;14.10;13.30;;;4.50;34.60;;;;;;5029696;28;20459;-52
2022/12/08 01:55:29;;;;;;;14.83;14.03;;;4.60;34.50;;;;;;5029722;28;20418;-48
2022/12/08 01:58:01;;;;;;;15.97;14.97;;;4.50;34.90;;;;;;5029955;28;20415;-49
2022/12/08 02:00:35;;;;;;;15.30;14.30;;;4.60;35.10;;;;;;5030829;28;20477;-53
2022/12/08 02:03:15;;;;;;;16.23;15.33;;;4.60;34.90;;;;;;5029777;28;20470;-51
2022/12/08 02:05:54;;;;;;;14.73;13.90;;;4.80;33.90;;;;;;5029791;28;20553;-48
2022/12/08 02:08:21;;;;;;;15.23;14.33;;;4.90;33.40;;;;;;5029750;28;20777;-48
2022/12/08 02:10:51;;;;;;;14.70;13.90;;;4.70;33.60;;;;;;5029579;28;20470;-48
2022/12/08 02:13:25;;;;;;;16.37;15.17;;;4.60;34.30;;;;;;5029728;28;20462;-50
2022/12/08 02:16:02;;;;;;;15.23;14.33;;;4.50;34.40;;;;;;5030770;28;20418;-50
2022/12/08 02:18:50;;;;;;;14.70;13.90;;;4.60;34.10;;;;;;5030082;28;20412;-50
2022/12/08 02:21:44;;;;;;;13.40;12.70;;;4.50;33.90;;;;;;5030006;28;20496;-54
2022/12/08 02:24:24;;;;;;;15.23;14.30;;;4.40;33.90;;;;;;5001730;28;20435;-54
2022/12/08 02:27:05;;;;;;;15.30;14.40;;;4.20;35.10;;;;;;5029617;28;20450;-56
2022/12/08 02:29:51;;;;;;;14.87;13.87;;;4.20;35.10;;;;;;5027931;28;20489;-56
2022/12/08 02:32:55;;;;;;;14.90;14.10;;;4.10;35.20;;;;;;5010043;28;20468;-53
2022/12/08 02:36:03;;;;;;;14.47;13.57;;;4.10;35.00;;;;;;5009324;28;20769;-54
2022/12/08 02:38:49;;;;;;;14.50;13.70;;;4.00;35.60;;;;;;4946928;28;20416;-51
2022/12/08 02:41:50;;;;;;;13.93;13.10;;;3.90;36.00;;;;;;5009136;28;21072;-50
2022/12/08 02:44:42;;;;;;;14.50;13.60;;;3.90;36.20;;;;;;5005132;28;20824;-51
2022/12/08 02:47:19;;;;;;;14.53;13.67;;;3.90;36.40;;;;;;5008717;28;20413;-50
2022/12/08 02:49:48;;;;;;;15.83;14.83;;;4.00;36.70;;;;;;5010260;28;20923;-55
2022/12/08 02:52:19;;;;;;;16.00;14.90;;;4.30;35.70;;;;;;5009022;28;20487;-48
2022/12/08 02:55:05;;;;;;;15.20;14.30;;;4.50;35.20;;;;;;5008660;28;20435;-49
2022/12/08 02:57:54;;;;;;;15.67;14.73;;;4.60;35.00;;;;;;5009318;28;20412;-48
2022/12/08 03:00:22;;;;;;;16.23;15.30;;;4.90;34.80;;;;;;5008324;28;20935;-48
2022/12/08 03:03:08;;;;;;;14.50;13.80;;;5.30;33.00;;;;;;5009080;28;20416;-48
2022/12/08 03:06:05;;;;;;;13.63;12.83;;;5.70;31.30;;;;;;5009422;28;20416;-50
2022/12/08 03:08:50;;;;;;;14.30;13.40;;;5.90;30.40;;;;;;5008537;28;20506;-53
2022/12/08 03:11:29;;;;;;;13.70;12.90;;;6.10;29.50;;;;;;5009220;28;20521;-53
2022/12/08 03:13:59;;;;;;;13.73;13.00;;;6.20;29.00;;;;;;5009378;28;20419;-51
2022/12/08 03:16:33;;;;;;;13.47;12.70;;;6.30;28.60;;;;;;5010129;28;20874;-51
2022/12/08 03:19:08;;;;;;;15.17;14.27;;;5.90;29.10;;;;;;5009522;28;20423;-55
2022/12/08 03:21:36;;;;;;;13.90;13.20;;;5.80;29.70;;;;;;5008736;28;20938;-53
2022/12/08 03:24:11;;;;;;;14.07;13.30;;;5.80;29.30;;;;;;5008178;28;20432;-53
2022/12/08 03:26:49;;;;;;;14.17;13.40;;;5.50;29.90;;;;;;5008664;28;20423;-47
2022/12/08 03:29:17;;;;;;;15.10;14.30;;;5.20;30.30;;;;;;5008734;28;20498;-48
2022/12/08 03:32:00;;;;;;;14.57;13.70;;;5.00;31.20;;;;;;5008430;28;20539;-51
2022/12/08 03:34:28;;;;;;;15.03;14.13;;;4.90;31.60;;;;;;5008342;28;20525;-49
2022/12/08 03:36:59;;;;;;;16.30;15.40;;;4.70;32.00;;;;;;5009009;28;20466;-53
2022/12/08 03:39:27;;;;;;;16.53;15.53;;;4.50;32.80;;;;;;5008363;28;20409;-48
2022/12/08 03:41:56;;;;;;;16.50;15.60;;;4.30;33.60;;;;;;5008993;28;20963;-51
2022/12/08 03:44:34;;;;;;;15.00;14.10;;;4.20;34.50;;;;;;5008228;28;20987;-55
2022/12/08 03:47:06;;;;;;;15.33;14.50;;;4.10;34.50;;;;;;5008712;28;20435;-53
2022/12/08 03:49:32;;;;;;;15.90;14.90;;;4.10;34.30;;;;;;5007493;28;20507;-53
2022/12/08 03:52:07;;;;;;;15.37;14.57;;;4.20;34.50;;;;;;5008686;28;21047;-55
2022/12/08 03:54:36;;;;;;;15.43;14.63;;;4.30;34.80;;;;;;5008264;28;20430;-54
2022/12/08 03:57:07;;;;;;;15.60;14.70;;;4.60;34.20;;;;;;5008692;28;20420;-52
2022/12/08 03:59:33;;;;;;;15.03;14.23;;;4.90;33.30;;;;;;5007906;28;20444;-53
2022/12/08 04:01:59;;;;;;;14.97;14.17;;;5.30;31.70;;;;;;5009369;28;20982;-51
2022/12/08 04:04:38;;;;;;;14.90;14.00;;;5.50;30.00;;;;;;5007819;28;20455;-51
2022/12/08 04:07:09;;;;;;;14.50;13.70;;;5.60;30.20;;;;;;5006384;28;20510;-53
2022/12/08 04:09:40;;;;;;;15.10;14.30;;;5.50;30.00;;;;;;5008008;28;20423;-56
2022/12/08 04:12:19;;;;;;;14.27;13.50;;;5.30;30.10;;;;;;5006489;28;20547;-54
2022/12/08 04:14:47;;;;;;;15.10;14.30;;;5.00;31.20;;;;;;5009103;28;20899;-56
2022/12/08 04:17:33;;;;;;;14.47;13.67;;;5.10;31.30;;;;;;5008157;28;20452;-52
2022/12/08 04:20:02;;;;;;;15.43;14.53;;;5.00;31.00;;;;;;5007612;28;20591;-55
2022/12/08 04:22:33;;;;;;;15.23;14.10;;;4.80;31.30;;;;;;5007563;28;20793;-54
2022/12/08 04:25:04;;;;;;;15.43;14.40;;;4.60;31.90;;;;;;5007791;28;20426;-52
2022/12/08 04:27:37;;;;;;;15.73;14.73;;;4.60;32.20;;;;;;5007756;28;20435;-55
2022/12/08 04:30:06;;;;;;;15.53;14.63;;;4.50;32.40;;;;;;5008246;28;20427;-54
2022/12/08 04:32:32;;;;;;;15.03;14.17;;;4.50;32.20;;;;;;5009267;28;20806;-55
2022/12/08 04:35:00;;;;;;;13.50;12.80;;;4.40;33.10;;;;;;5008994;28;20423;-56
2022/12/08 04:37:29;;;;;;;15.17;14.37;;;4.30;32.70;;;;;;5007820;28;20425;-51
2022/12/08 04:39:58;;;;;;;15.10;14.30;;;4.30;33.50;;;;;;5007439;28;20471;-52
2022/12/08 04:42:30;;;;;;;14.77;13.97;;;4.20;33.40;;;;;;5007532;28;20436;-53
2022/12/08 04:45:01;;;;;;;14.67;13.87;;;4.30;33.50;;;;;;5007179;28;20854;-57
2022/12/08 04:47:32;;;;;;;14.43;13.63;;;4.40;32.40;;;;;;5008393;28;20418;-54
2022/12/08 04:50:01;;;;;;;16.07;15.10;;;4.60;33.40;;;;;;5008411;28;20416;-53
2022/12/08 04:52:27;;;;;;;15.50;14.60;;;4.70;32.00;;;;;;5008081;28;20862;-54
2022/12/08 04:55:00;;;;;;;15.90;14.90;;;4.50;32.20;;;;;;5008342;28;20420;-55
2022/12/08 04:57:26;;;;;;;15.13;14.30;;;4.20;32.80;;;;;;5008210;28;20855;-53
2022/12/08 04:59:57;;;;;;;17.60;16.70;;;4.10;34.10;;;;;;5008568;28;20456;-52
2022/12/08 05:02:25;;;;;;;16.30;15.27;;;4.00;33.70;;;;;;5008696;28;20829;-56
2022/12/08 05:05:01;;;;;;;15.27;14.43;;;4.10;33.80;;;;;;5008499;28;20428;-54
2022/12/08 05:07:32;;;;;;;17.00;16.00;;;4.10;34.20;;;;;;5008747;28;21001;-52
2022/12/08 05:09:58;;;;;;;16.50;15.50;;;4.00;33.50;;;;;;5008852;28;20447;-56
2022/12/08 05:12:37;;;;;;;16.20;15.20;;;4.00;34.50;;;;;;5007963;28;20456;-55
2022/12/08 05:15:03;;;;;;;16.27;15.37;;;4.10;33.90;;;;;;5008554;28;20783;-51
2022/12/08 05:17:29;;;;;;;15.90;15.10;;;4.20;32.80;;;;;;5010625;28;20784;-54
2022/12/08 05:20:06;;;;;;;15.67;14.67;;;4.30;32.90;;;;;;5008453;28;20474;-53
2022/12/08 05:22:35;;;;;;;16.20;15.10;;;4.10;33.00;;;;;;5008780;28;20431;-52
2022/12/08 05:25:01;;;;;;;15.93;15.03;;;4.10;33.30;;;;;;5011754;28;20485;-54
2022/12/08 05:27:32;;;;;;;19.50;17.80;;;4.30;33.70;;;;;;5010973;28;20424;-53
2022/12/08 05:30:00;;;;;;;18.67;17.23;;;4.80;32.00;;;;;;5013872;28;20439;-52
2022/12/08 05:32:26;;;;;;;16.40;15.40;;;4.70;31.60;;;;;;5012783;28;20800;-56
2022/12/08 05:34:52;;;;;;;15.27;14.33;;;4.70;31.20;;;;;;5012901;28;20408;-53
2022/12/08 05:37:18;;;;;;;15.20;14.37;;;4.80;31.40;;;;;;5011967;28;20417;-55
2022/12/08 05:39:47;;;;;;;15.03;14.17;;;4.60;31.60;;;;;;5012975;28;20420;-53
2022/12/08 05:42:22;;;;;;;14.13;13.33;;;4.40;32.20;;;;;;5013005;28;20793;-52
2022/12/08 05:44:48;;;;;;;15.07;14.27;;;4.50;33.10;;;;;;5012909;28;20907;-60
2022/12/08 05:47:16;;;;;;;14.07;13.30;;;4.80;31.80;;;;;;5013149;28;20515;-60
2022/12/08 05:49:45;;;;;;;15.00;13.80;;;5.00;30.10;;;;;;5014167;28;20826;-60
2022/12/08 05:52:21;;;;;;;12.90;12.13;;;4.90;30.50;;;;;;5012539;28;20467;-60
2022/12/08 05:54:52;;;;;;;14.43;13.63;;;4.80;30.20;;;;;;5012189;28;20503;-60
2022/12/08 05:57:23;;;;;;;13.50;12.80;;;4.80;30.30;;;;;;5014152;28;20419;-60
2022/12/08 05:59:52;;;;;;;14.37;13.67;;;4.40;31.20;;;;;;5012946;28;20425;-60
2022/12/08 06:02:18;;;;;;;14.50;13.70;;;4.30;31.20;;;;;;5012544;28;20455;-60
2022/12/08 06:04:47;;;;;;;15.83;14.90;;;4.10;32.70;;;;;;5012624;28;20514;-60
2022/12/08 06:07:16;;;;;;;14.77;13.93;;;4.00;32.80;;;;;;5012284;28;20418;-60
2022/12/08 06:09:51;;;;;;;14.87;13.97;;;3.80;32.90;;;;;;5013245;28;20471;-61
2022/12/08 06:12:23;;;;;;;14.60;13.77;;;3.60;34.60;;;;;;5009933;28;20569;-60
2022/12/08 06:14:49;;;;;;;16.20;15.10;;;3.50;34.80;;;;;;5011535;28;20423;-55
2022/12/08 06:17:15;;;;;;;15.30;14.40;;;3.50;35.10;;;;;;5011476;28;20784;-51
2022/12/08 06:19:44;;;;;;;15.77;14.77;;;3.70;35.60;;;;;;5011957;28;20412;-55
2022/12/08 06:22:13;;;;;;;15.43;14.53;;;4.00;33.90;;;;;;5011196;28;20427;-49
2022/12/08 06:24:49;;;;;;;15.23;14.43;;;4.10;33.00;;;;;;5011138;28;20431;-47
2022/12/08 06:27:20;;;;;;;15.10;14.17;;;4.30;32.90;;;;;;5024879;28;20513;-60
2022/12/08 06:29:51;;;;;;;14.90;14.07;;;4.50;31.90;;;;;;5032136;28;20423;-51
2022/12/08 06:32:17;;;;;;;15.27;14.47;;;4.70;30.90;;;;;;5050440;22;20500;-75
2022/12/08 06:34:42;;;;;;;14.27;13.40;;;4.60;30.60;;;;;;5041484;28;20431;-73
2022/12/08 06:37:08;;;;;;;16.03;15.13;;;4.60;31.10;;;;;;5047106;28;20198;-73
2022/12/08 06:39:33;;;;;;;14.53;13.83;;;4.70;31.60;;;;;;5034822;28;20176;-74
2022/12/08 06:44:44;;;;;;;16.13;15.13;;;5.00;29.80;;;;;;5053884;28;20179;-73
2022/12/08 06:47:09;;;;;;;16.37;15.30;;;4.70;30.60;;;;;;5054616;28;20407;-74
2022/12/08 06:49:35;;;;;;;15.60;14.73;;;4.60;30.60;;;;;;5053713;28;20706;-73
2022/12/08 06:52:00;;;;;;;16.43;15.43;;;4.60;31.90;;;;;;5053361;28;20203;-74
2022/12/08 06:54:26;;;;;;;16.03;15.13;;;4.80;31.60;;;;;;5051592;28;20291;-73
2022/12/08 06:56:52;;;;;;;14.80;14.00;;;5.20;30.20;;;;;;5053116;28;20238;-73
2022/12/08 06:59:18;;;;;;;15.10;14.20;;;5.50;29.20;;;;;;5052739;28;20180;-73
2022/12/08 07:01:44;;;;;;;14.60;13.90;;;5.70;28.80;;;;;;5052377;28;20191;-73
2022/12/08 07:04:10;;;;;;;16.17;15.27;;;5.80;28.20;;;;;;5052558;28;20675;-73
2022/12/08 07:06:36;;;;;;;15.20;14.20;;;5.90;28.00;;;;;;5052810;28;20471;-75
2022/12/08 07:09:02;;;;;;;14.30;13.50;;;6.00;27.60;;;;;;5052738;28;20266;-74
2022/12/08 07:11:27;;;;;;;14.80;13.77;;;6.10;27.20;;;;;;5052986;28;20235;-74
2022/12/08 07:13:55;;;;;;;15.93;14.93;;;6.10;27.10;;;;;;5052881;28;20233;-74
2022/12/08 07:16:21;;;;;;;15.60;14.43;;;6.20;27.10;;;;;;5052425;28;20179;-74
2022/12/08 07:18:47;;;;;;;15.50;14.70;;;6.10;26.70;;;;;;5053010;28;20450;-73
2022/12/08 07:21:16;;;;;;;15.43;14.43;;;6.10;27.50;;;;;;5052565;28;20545;-74
2022/12/08 07:23:44;;;;;;;15.17;14.13;;;6.20;27.20;;;;;;5052409;28;20200;-74
2022/12/08 07:26:11;;;;;;;14.57;13.67;;;6.20;27.10;;;;;;5052867;28;20429;-74
2022/12/08 07:28:38;;;;;;;14.87;14.00;;;6.30;27.20;;;;;;5052405;28;20504;-74
2022/12/08 07:31:04;;;;;;;14.53;13.73;;;6.40;27.10;;;;;;5052024;28;20454;-73
2022/12/08 07:33:31;;;;;;;14.67;13.57;;;6.50;26.70;;;;;;5051651;28;20508;-73
2022/12/08 07:35:59;;;;;;;14.50;13.70;;;6.50;26.40;;;;;;5052418;28;20493;-74
2022/12/08 07:38:25;;;;;;;14.80;14.00;;;6.60;26.20;;;;;;5051241;28;20403;-75
2022/12/08 07:40:51;;;;;;;15.50;14.50;;;6.60;26.50;;;;;;5051858;28;20460;-75
2022/12/08 07:43:17;;;;;;;12.80;12.20;;;6.50;26.60;;;;;;5051359;28;20506;-74
2022/12/08 07:45:43;;;;;;;14.77;13.93;;;6.50;26.40;;;;;;5051649;28;20506;-73
2022/12/08 07:48:09;;;;;;;13.97;12.97;;;6.60;26.60;;;;;;5043412;28;20260;-73
2022/12/08 07:50:35;;;;;;;14.47;13.57;;;6.60;25.90;;;;;;5040980;28;20561;-73
2022/12/08 07:53:00;;;;;;;14.50;13.57;;;6.60;26.00;;;;;;5037269;28;20617;-75
2022/12/08 07:55:26;;;;;;;14.57;13.73;;;6.70;26.00;;;;;;5032319;28;20208;-74
2022/12/08 07:57:52;;;;;;;15.40;14.30;;;6.70;25.90;;;;;;5036227;28;20171;-75
2022/12/08 08:00:18;;;;;;;14.70;13.80;;;6.60;25.60;;;;;;5051821;28;20206;-76
2022/12/08 08:02:44;;;;;;;15.37;14.27;;;6.20;26.70;;;;;;5050567;28;20246;-75
2022/12/08 08:05:13;;;;;;;14.70;13.70;;;6.30;27.10;;;;;;5052301;28;20406;-75
2022/12/08 08:07:42;;;;;;;15.33;14.43;;;6.40;26.80;;;;;;5054734;28;20740;-75
2022/12/08 08:10:08;;;;;;;15.23;14.33;;;6.50;26.50;;;;;;5052427;28;20464;-74
2022/12/08 08:12:35;;;;;;;14.47;13.67;;;6.60;26.20;;;;;;5051412;28;20458;-75
2022/12/08 08:15:02;;;;;;;14.73;13.77;;;6.40;26.20;;;;;;5051323;28;20421;-75
2022/12/08 08:17:28;;;;;;;14.20;13.30;;;6.00;27.60;;;;;;5051961;28;20878;-75
2022/12/08 08:19:53;;;;;;;15.67;14.53;;;5.80;27.90;;;;;;5048319;28;20769;-75
2022/12/08 08:22:19;;;;;;;14.80;14.03;;;5.80;28.40;;;;;;5051890;28;20441;-74
2022/12/08 08:24:44;;;;;;;15.20;14.40;;;6.00;28.10;;;;;;5052160;28;20715;-74
2022/12/08 08:27:10;;;;;;;15.40;14.30;;;6.00;26.90;;;;;;5051767;28;20543;-73
2022/12/08 08:29:36;;;;;;;15.17;14.27;;;6.00;27.80;;;;;;5033792;28;20275;-73
2022/12/08 08:32:01;;;;;;;15.73;14.77;;;6.00;27.30;;;;;;5051640;28;20199;-73
2022/12/08 08:34:27;;;;;;;15.40;14.40;;;6.10;27.90;;;;;;5052029;28;20230;-75
2022/12/08 08:36:52;;;;;;;15.50;14.50;;;6.10;27.10;;;;;;5033824;28;20259;-74
2022/12/08 08:39:18;;;;;;;14.77;13.70;;;6.10;26.80;;;;;;5051657;28;20167;-74
2022/12/08 08:41:43;;;;;;;15.00;13.93;;;5.50;27.40;;;;;;5034097;28;20198;-73
2022/12/08 08:44:09;;;;;;;13.83;13.07;;;5.10;29.40;;;;;;5051789;28;20191;-74
2022/12/08 08:46:34;;;;;;;15.40;14.50;;;4.80;28.90;;;;;;5052355;28;20187;-72
2022/12/08 08:49:00;;;;;;;16.43;15.33;;;4.50;30.00;;;;;;5041831;28;20246;-74
2022/12/08 08:51:25;;;;;;;16.30;15.40;;;4.00;32.40;;;;;;5013177;28;20204;-73
2022/12/08 08:53:51;;;;;;;16.33;15.33;;;4.10;32.60;;;;;;5029518;28;20200;-72
2022/12/08 08:56:18;;;;;;;16.47;15.40;;;4.10;32.00;;;;;;5035158;28;20242;-73
2022/12/08 08:58:45;;;;;;;17.23;16.33;;;4.20;32.80;;;;;;5043330;28;20173;-73
2022/12/08 09:01:16;;;;;;;18.10;16.70;;;4.50;33.30;;;;;;5045891;28;20414;-75
2022/12/08 09:03:42;;;;;;;16.30;15.40;;;4.70;31.80;;;;;;5053082;28;20698;-73
2022/12/08 09:06:08;;;;;;;15.80;14.90;;;4.80;30.90;;;;;;5054078;28;20773;-73
2022/12/08 09:08:33;;;;;;;16.07;15.13;;;4.80;31.10;;;;;;5055614;28;20414;-73
2022/12/08 09:10:59;;;;;;;17.10;16.10;;;4.90;30.20;;;;;;5055943;28;20270;-75
2022/12/08 09:13:24;;;;;;;18.17;16.73;;;4.90;30.00;;;;;;5042717;28;20530;-73
2022/12/08 09:15:50;;;;;;;18.17;16.67;;;5.10;29.60;;;;;;5060826;28;20192;-74
2022/12/08 09:18:15;;;;;;;19.67;17.07;;;5.30;30.00;;;;;;5066443;28;20176;-74
2022/12/08 09:20:41;;;;;;;23.33;17.73;;;5.50;29.10;;;;;;5077525;28;20164;-73
2022/12/08 09:23:06;;;;;;;20.50;16.70;;;5.60;29.20;;;;;;5068510;28;20204;-74
2022/12/08 09:25:32;;;;;;;19.17;17.30;;;5.70;28.20;;;;;;5070131;28;20187;-73
2022/12/08 09:27:57;;;;;;;16.93;15.73;;;5.60;29.00;;;;;;5057899;28;20249;-73
2022/12/08 09:30:23;;;;;;;16.20;15.10;;;5.50;29.00;;;;;;5052355;28;20184;-73
2022/12/08 09:32:49;;;;;;;16.83;15.83;;;5.50;28.40;;;;;;5055802;28;20231;-72
2022/12/08 09:35:14;;;;;;;15.43;14.53;;;5.50;28.40;;;;;;5056832;28;20233;-73
2022/12/08 09:37:40;;;;;;;15.20;14.40;;;5.10;28.90;;;;;;5056676;28;20176;-73
2022/12/08 09:40:06;;;;;;;16.77;15.77;;;4.90;30.00;;;;;;5051033;28;20173;-72
2022/12/08 09:43:00;;;;;;;15.70;14.90;;;4.70;30.10;;;;;;5039748;28;20200;-73
2022/12/08 09:45:29;;;;;;;15.37;14.47;;;4.60;30.40;;;;;;5035229;28;20850;-72
2022/12/08 09:48:17;;;;;;;17.20;16.20;;;4.60;30.90;;;;;;5019320;28;20443;-73
2022/12/08 09:50:54;;;;;;;17.00;16.00;;;4.60;31.30;;;;;;5036822;28;20801;-73
2022/12/08 09:53:25;;;;;;;16.10;15.20;;;4.70;31.70;;;;;;5035032;28;20430;-73
2022/12/08 09:55:52;;;;;;;17.20;16.10;;;5.00;29.60;;;;;;5034772;28;20407;-73
2022/12/08 09:58:52;;;;;;;16.70;15.80;;;5.10;30.00;;;;;;5035974;28;20408;-73
2022/12/08 10:01:22;;;;;;;16.83;15.93;;;5.00;29.60;;;;;;5012847;28;20438;-73
2022/12/08 10:03:48;;;;;;;16.70;15.80;;;4.80;30.60;;;;;;5034690;28;20853;-73
2022/12/08 10:06:31;;;;;;;16.90;16.00;;;4.80;30.00;;;;;;5034773;28;20474;-73
2022/12/08 10:09:15;;;;;;;16.07;15.17;;;4.70;30.00;;;;;;5033508;28;20415;-73
2022/12/08 10:11:58;;;;;;;16.33;15.33;;;4.60;30.10;;;;;;5034483;28;20976;-73
2022/12/08 10:14:39;;;;;;;14.67;13.80;;;4.70;30.80;;;;;;5034030;28;20451;-73
2022/12/08 10:17:18;;;;;;;14.93;14.13;;;4.80;30.00;;;;;;5034322;28;20826;-73
2022/12/08 10:19:45;;;;;;;14.83;14.13;;;4.80;29.70;;;;;;5034447;28;20896;-73
2022/12/08 10:22:20;;;;;;;15.00;14.10;;;4.90;30.00;;;;;;5034292;28;20443;-73
2022/12/08 10:25:16;;;;;;;14.63;13.70;;;4.90;29.70;;;;;;5033911;28;20410;-73
2022/12/08 10:27:42;;;;;;;15.80;14.87;;;4.90;30.00;;;;;;5032808;28;20526;-73
2022/12/08 10:30:12;;;;;;;15.50;14.80;;;4.90;30.00;;;;;;5033975;28;20447;-73
2022/12/08 10:32:39;;;;;;;15.53;14.70;;;4.90;30.30;;;;;;5033401;28;20209;-73
2022/12/08 10:35:07;;;;;;;14.57;13.97;;;4.90;30.00;;;;;;5033707;28;20443;-72
2022/12/08 10:37:33;;;;;;;15.80;14.77;;;4.90;29.70;;;;;;5015321;28;20415;-73
2022/12/08 10:40:04;;;;;;;15.27;14.40;;;4.90;30.00;;;;;;5033952;28;20545;-73
2022/12/08 10:42:38;;;;;;;13.93;13.23;;;5.20;29.60;;;;;;5033992;28;20610;-73
2022/12/08 10:45:09;;;;;;;16.50;15.60;;;5.40;29.30;;;;;;5039179;28;20975;-73
2022/12/08 10:47:38;;;;;;;14.33;13.53;;;5.70;29.10;;;;;;5052731;28;20445;-73
2022/12/08 10:50:31;;;;;;;14.43;13.67;;;5.80;28.30;;;;;;5053361;28;20413;-73
2022/12/08 10:52:58;;;;;;;14.50;13.70;;;5.70;28.00;;;;;;5040986;28;20446;-72
2022/12/08 10:55:25;;;;;;;15.93;15.13;;;5.60;28.40;;;;;;5052967;28;20410;-72
2022/12/08 10:57:50;;;;;;;17.07;15.97;;;5.70;28.70;;;;;;5053099;28;20417;-72
2022/12/08 11:00:26;;;;;;;16.63;15.63;;;5.80;27.90;;;;;;5053290;28;21078;-72
2022/12/08 11:03:02;;;;;;;14.20;13.50;;;6.00;27.60;;;;;;5047469;28;20195;-72
2022/12/08 11:05:32;;;;;;;14.70;14.00;;;5.80;27.70;;;;;;5066485;28;20505;-72
2022/12/08 11:07:59;;;;;;;15.60;14.73;;;5.90;27.90;;;;;;5045987;28;20941;-72
2022/12/08 11:10:41;;;;;;;15.43;14.63;;;5.90;27.80;;;;;;5052894;28;20745;-73
2022/12/08 11:13:17;;;;;;;16.13;14.93;;;5.90;28.10;;;;;;5066012;28;20526;-72
2022/12/08 11:15:44;;;;;;;16.73;15.53;;;6.10;27.80;;;;;;5072721;28;20472;-73
2022/12/08 11:18:41;;;;;;;14.67;13.77;;;6.20;27.60;;;;;;5071933;28;20414;-73
2022/12/08 11:21:12;;;;;;;14.17;13.33;;;6.20;27.10;;;;;;5061976;28;20566;-73
2022/12/08 11:23:40;;;;;;;13.43;12.63;;;6.10;27.00;;;;;;5049966;28;20434;-74
2022/12/08 11:26:27;;;;;;;14.57;13.77;;;5.80;27.00;;;;;;5047069;28;20519;-73
2022/12/08 11:28:53;;;;;;;13.97;13.27;;;5.70;27.50;;;;;;5044856;28;20501;-73
2022/12/08 11:31:33;;;;;;;16.80;15.83;;;5.70;27.90;;;;;;5052320;28;20545;-73
2022/12/08 11:34:00;;;;;;;13.67;12.97;;;5.80;27.70;;;;;;5052709;28;20244;-72
2022/12/08 11:36:28;;;;;;;13.83;13.13;;;5.80;27.50;;;;;;5052558;28;21215;-72
2022/12/08 11:39:01;;;;;;;13.77;13.03;;;5.90;27.10;;;;;;5052319;28;20919;-73
2022/12/08 11:41:30;;;;;;;14.67;13.97;;;5.90;27.00;;;;;;5051904;28;20917;-71
2022/12/08 11:44:05;;;;;;;13.00;12.23;;;5.90;27.20;;;;;;5052328;28;20450;-73
2022/12/08 11:46:42;;;;;;;13.40;12.80;;;5.90;27.30;;;;;;5052151;28;20418;-73
2022/12/08 11:49:13;;;;;;;14.10;13.30;;;5.90;26.80;;;;;;5052248;28;20414;-72
2022/12/08 11:51:41;;;;;;;13.80;13.10;;;6.10;26.70;;;;;;5048920;28;20474;-72
2022/12/08 11:54:16;;;;;;;13.23;12.73;;;6.20;26.70;;;;;;5051458;28;20426;-73
2022/12/08 11:56:59;;;;;;;13.60;12.90;;;6.30;26.30;;;;;;5051979;28;20409;-73
2022/12/08 11:59:38;;;;;;;13.93;13.30;;;6.40;25.70;;;;;;5051282;28;20422;-72
2022/12/08 12:02:07;;;;;;;13.30;12.60;;;6.50;26.10;;;;;;5051386;28;20906;-73
2022/12/08 12:04:37;;;;;;;13.53;12.83;;;6.40;25.60;;;;;;5032100;28;20488;-72
2022/12/08 12:07:18;;;;;;;13.40;12.70;;;6.20;26.60;;;;;;5048203;28;20434;-71
2022/12/08 12:10:06;;;;;;;12.60;11.90;;;6.50;26.20;;;;;;5051535;28;20418;-72
2022/12/08 12:13:03;;;;;;;12.77;12.07;;;6.60;25.20;;;;;;5051641;28;20477;-74
2022/12/08 12:15:51;;;;;;;12.57;11.87;;;6.50;25.50;;;;;;5052345;28;20427;-73
2022/12/08 12:18:40;;;;;;;13.60;12.90;;;6.30;25.50;;;;;;5049920;28;20411;-73
2022/12/08 12:21:24;;;;;;;13.90;13.00;;;6.50;25.50;;;;;;5049198;28;20506;-73
2022/12/08 12:24:09;;;;;;;13.27;12.47;;;6.40;25.30;;;;;;5025946;28;20971;-73
2022/12/08 12:26:38;;;;;;;12.13;11.53;;;6.50;25.30;;;;;;5051617;28;20492;-73
2022/12/08 12:29:16;;;;;;;13.57;12.87;;;6.40;25.20;;;;;;5047237;28;20454;-73
2022/12/08 12:31:46;;;;;;;11.87;11.33;;;6.50;25.40;;;;;;5033754;28;20463;-73
2022/12/08 12:34:17;;;;;;;12.40;11.73;;;6.30;24.80;;;;;;5035493;28;20497;-73
2022/12/08 12:37:02;;;;;;;12.37;11.57;;;6.30;25.50;;;;;;5055440;28;20448;-73
2022/12/08 12:39:31;;;;;;;12.73;12.00;;;6.40;25.20;;;;;;5055685;28;20497;-72
2022/12/08 12:42:01;;;;;;;12.70;11.73;;;6.40;25.00;;;;;;5054570;28;20419;-72
2022/12/08 12:44:27;;;;;;;13.67;12.37;;;6.30;25.20;;;;;;5054255;28;20406;-73
2022/12/08 12:46:58;;;;;;;12.53;11.73;;;6.30;25.10;;;;;;5055585;28;20417;-74
2022/12/08 12:49:39;;;;;;;18.23;13.17;;;6.50;24.50;;;;;;5055868;28;20172;-73
2022/12/08 12:52:16;;;;;;;13.10;12.40;;;6.50;24.90;;;;;;5055143;28;20827;-73
2022/12/08 12:55:08;;;;;;;12.10;11.40;;;6.50;24.70;;;;;;5058980;28;20418;-72
2022/12/08 12:57:39;;;;;;;12.20;11.50;;;6.60;24.30;;;;;;5006028;28;20942;-73
2022/12/08 13:00:06;;;;;;;12.43;11.83;;;6.70;24.20;;;;;;5055404;28;20406;-73
2022/12/08 13:02:34;;;;;;;11.93;11.33;;;6.60;24.40;;;;;;5054749;28;20464;-73
2022/12/08 13:05:17;;;;;;;13.20;12.40;;;6.50;25.00;;;;;;5041318;28;20418;-73